sensor_id;sensor_type;location;lat;lon;timestamp;temperature;humidity
28959;DHT22;16066;0.000;0.000;2022-09-09T00:03:57;21.50;57.40
28959;DHT22;16066;0.000;0.000;2022-09-09T00:06:28;21.60;57.40
28959;DHT22;16066;0.000;0.000;2022-09-09T00:09:20;21.60;57.50
28959;DHT22;16066;0.000;0.000;2022-09-09T00:12:17;21.60;57.30
28959;DHT22;16066;0.000;0.000;2022-09-09T00:15:02;21.70;57.10
28959;DHT22;16066;0.000;0.000;2022-09-09T00:17:39;21.80;57.20
28959;DHT22;16066;0.000;0.000;2022-09-09T00:22:46;21.90;56.70
28959;DHT22;16066;0.000;0.000;2022-09-09T00:25:43;21.90;56.60
28959;DHT22;16066;0.000;0.000;2022-09-09T00:28:19;22.00;56.80
28959;DHT22;16066;0.000;0.000;2022-09-09T00:30:46;22.00;57.00
28959;DHT22;16066;0.000;0.000;2022-09-09T00:33:16;21.80;57.50
28959;DHT22;16066;0.000;0.000;2022-09-09T00:35:57;21.70;57.70
28959;DHT22;16066;0.000;0.000;2022-09-09T00:38:37;21.60;57.60
28959;DHT22;16066;0.000;0.000;2022-09-09T00:41:13;21.70;57.60
28959;DHT22;16066;0.000;0.000;2022-09-09T00:43:41;21.70;57.60
28959;DHT22;16066;0.000;0.000;2022-09-09T00:48:50;21.60;57.70
28959;DHT22;16066;0.000;0.000;2022-09-09T00:51:43;21.50;57.80
28959;DHT22;16066;0.000;0.000;2022-09-09T00:59:52;21.50;57.90
28959;DHT22;16066;0.000;0.000;2022-09-09T01:02:28;21.50;57.70
28959;DHT22;16066;0.000;0.000;2022-09-09T01:05:22;21.50;57.90
28959;DHT22;16066;0.000;0.000;2022-09-09T01:07:48;21.50;58.10
28959;DHT22;16066;0.000;0.000;2022-09-09T01:13:19;21.60;57.70
28959;DHT22;16066;0.000;0.000;2022-09-09T01:15:48;21.60;57.80
28959;DHT22;16066;0.000;0.000;2022-09-09T01:18:17;21.70;57.80
28959;DHT22;16066;0.000;0.000;2022-09-09T01:23:37;21.80;57.30
28959;DHT22;16066;0.000;0.000;2022-09-09T01:26:15;21.80;57.50
28959;DHT22;16066;0.000;0.000;2022-09-09T01:28:45;21.90;57.50
28959;DHT22;16066;0.000;0.000;2022-09-09T01:31:15;21.80;57.70
28959;DHT22;16066;0.000;0.000;2022-09-09T01:33:42;21.80;57.80
28959;DHT22;16066;0.000;0.000;2022-09-09T01:36:19;21.80;57.90
28959;DHT22;16066;0.000;0.000;2022-09-09T01:38:46;21.70;58.00
28959;DHT22;16066;0.000;0.000;2022-09-09T01:41:12;21.70;57.90
28959;DHT22;16066;0.000;0.000;2022-09-09T01:43:38;21.60;57.90
28959;DHT22;16066;0.000;0.000;2022-09-09T01:46:04;21.60;57.70
28959;DHT22;16066;0.000;0.000;2022-09-09T01:48:30;21.60;57.80
28959;DHT22;16066;0.000;0.000;2022-09-09T01:50:56;21.50;57.60
28959;DHT22;16066;0.000;0.000;2022-09-09T01:53:22;21.50;57.50
28959;DHT22;16066;0.000;0.000;2022-09-09T01:56:11;21.50;57.40
28959;DHT22;16066;0.000;0.000;2022-09-09T01:58:47;21.50;57.30
28959;DHT22;16066;0.000;0.000;2022-09-09T02:03:58;21.40;57.40
28959;DHT22;16066;0.000;0.000;2022-09-09T02:06:35;21.40;57.40
28959;DHT22;16066;0.000;0.000;2022-09-09T02:09:05;21.40;57.20
28959;DHT22;16066;0.000;0.000;2022-09-09T02:11:32;21.40;57.10
28959;DHT22;16066;0.000;0.000;2022-09-09T02:14:25;21.40;57.30
28959;DHT22;16066;0.000;0.000;2022-09-09T02:17:01;21.40;56.80
28959;DHT22;16066;0.000;0.000;2022-09-09T02:19:45;21.40;56.70
28959;DHT22;16066;0.000;0.000;2022-09-09T02:22:12;21.40;56.60
28959;DHT22;16066;0.000;0.000;2022-09-09T02:24:39;21.40;56.70
28959;DHT22;16066;0.000;0.000;2022-09-09T02:27:08;21.40;56.60
28959;DHT22;16066;0.000;0.000;2022-09-09T02:29:37;21.40;56.70
28959;DHT22;16066;0.000;0.000;2022-09-09T02:32:07;21.30;56.50
28959;DHT22;16066;0.000;0.000;2022-09-09T02:34:39;21.30;56.70
28959;DHT22;16066;0.000;0.000;2022-09-09T02:37:08;21.30;56.70
28959;DHT22;16066;0.000;0.000;2022-09-09T02:39:35;21.30;56.70
28959;DHT22;16066;0.000;0.000;2022-09-09T02:42:00;21.30;56.60
28959;DHT22;16066;0.000;0.000;2022-09-09T02:44:26;21.30;56.60
28959;DHT22;16066;0.000;0.000;2022-09-09T02:52:56;21.30;56.60
28959;DHT22;16066;0.000;0.000;2022-09-09T02:58:05;21.30;56.80
28959;DHT22;16066;0.000;0.000;2022-09-09T03:00:33;21.30;56.70
28959;DHT22;16066;0.000;0.000;2022-09-09T03:03:02;21.20;56.80
28959;DHT22;16066;0.000;0.000;2022-09-09T03:05:28;21.20;56.80
28959;DHT22;16066;0.000;0.000;2022-09-09T03:07:54;21.20;56.70
28959;DHT22;16066;0.000;0.000;2022-09-09T03:10:20;21.20;56.60
28959;DHT22;16066;0.000;0.000;2022-09-09T03:12:46;21.10;56.70
28959;DHT22;16066;0.000;0.000;2022-09-09T03:15:12;21.10;56.90
28959;DHT22;16066;0.000;0.000;2022-09-09T03:17:38;21.10;56.90
28959;DHT22;16066;0.000;0.000;2022-09-09T03:20:04;21.10;56.80
28959;DHT22;16066;0.000;0.000;2022-09-09T03:22:30;21.00;57.00
28959;DHT22;16066;0.000;0.000;2022-09-09T03:24:56;21.00;57.10
28959;DHT22;16066;0.000;0.000;2022-09-09T03:27:22;21.00;57.10
28959;DHT22;16066;0.000;0.000;2022-09-09T03:29:48;21.00;57.10
28959;DHT22;16066;0.000;0.000;2022-09-09T03:32:16;21.00;57.00
28959;DHT22;16066;0.000;0.000;2022-09-09T03:34:43;21.00;57.00
28959;DHT22;16066;0.000;0.000;2022-09-09T03:37:08;21.00;57.00
28959;DHT22;16066;0.000;0.000;2022-09-09T03:39:34;21.00;57.10
28959;DHT22;16066;0.000;0.000;2022-09-09T03:42:00;21.00;57.10
28959;DHT22;16066;0.000;0.000;2022-09-09T03:44:29;21.00;57.10
28959;DHT22;16066;0.000;0.000;2022-09-09T03:46:56;21.00;57.20
28959;DHT22;16066;0.000;0.000;2022-09-09T03:49:21;20.90;57.20
28959;DHT22;16066;0.000;0.000;2022-09-09T03:51:48;20.90;57.20
28959;DHT22;16066;0.000;0.000;2022-09-09T03:54:14;20.90;57.30
28959;DHT22;16066;0.000;0.000;2022-09-09T03:56:39;20.80;57.30
28959;DHT22;16066;0.000;0.000;2022-09-09T03:59:07;20.80;57.50
28959;DHT22;16066;0.000;0.000;2022-09-09T04:01:34;20.80;57.30
28959;DHT22;16066;0.000;0.000;2022-09-09T04:04:00;20.80;57.30
28959;DHT22;16066;0.000;0.000;2022-09-09T04:06:27;20.90;57.30
28959;DHT22;16066;0.000;0.000;2022-09-09T04:08:53;20.80;57.30
28959;DHT22;16066;0.000;0.000;2022-09-09T04:11:20;20.90;57.30
28959;DHT22;16066;0.000;0.000;2022-09-09T04:13:46;20.90;57.10
28959;DHT22;16066;0.000;0.000;2022-09-09T04:16:12;21.00;57.10
28959;DHT22;16066;0.000;0.000;2022-09-09T04:18:39;21.00;57.00
28959;DHT22;16066;0.000;0.000;2022-09-09T04:21:05;21.00;57.00
28959;DHT22;16066;0.000;0.000;2022-09-09T04:23:32;21.00;57.00
28959;DHT22;16066;0.000;0.000;2022-09-09T04:26:00;21.00;56.90
28959;DHT22;16066;0.000;0.000;2022-09-09T04:28:28;21.00;56.90
28959;DHT22;16066;0.000;0.000;2022-09-09T04:30:55;21.00;56.80
28959;DHT22;16066;0.000;0.000;2022-09-09T04:33:23;21.00;56.80
28959;DHT22;16066;0.000;0.000;2022-09-09T04:35:52;21.00;56.80
28959;DHT22;16066;0.000;0.000;2022-09-09T04:38:19;21.00;56.90
28959;DHT22;16066;0.000;0.000;2022-09-09T04:40:49;21.00;56.90
28959;DHT22;16066;0.000;0.000;2022-09-09T04:43:17;21.00;56.80
28959;DHT22;16066;0.000;0.000;2022-09-09T04:45:47;21.00;57.00
28959;DHT22;16066;0.000;0.000;2022-09-09T04:48:13;21.00;56.90
28959;DHT22;16066;0.000;0.000;2022-09-09T04:50:39;21.00;57.00
28959;DHT22;16066;0.000;0.000;2022-09-09T04:53:06;20.90;57.00
28959;DHT22;16066;0.000;0.000;2022-09-09T04:55:33;20.90;57.00
28959;DHT22;16066;0.000;0.000;2022-09-09T04:58:07;21.00;57.00
28959;DHT22;16066;0.000;0.000;2022-09-09T05:00:34;21.00;56.90
28959;DHT22;16066;0.000;0.000;2022-09-09T05:03:05;21.00;56.90
28959;DHT22;16066;0.000;0.000;2022-09-09T05:05:32;21.00;57.00
28959;DHT22;16066;0.000;0.000;2022-09-09T05:08:07;21.00;57.00
28959;DHT22;16066;0.000;0.000;2022-09-09T05:10:36;21.00;56.90
28959;DHT22;16066;0.000;0.000;2022-09-09T05:13:02;20.90;57.40
28959;DHT22;16066;0.000;0.000;2022-09-09T05:15:28;20.90;56.90
28959;DHT22;16066;0.000;0.000;2022-09-09T05:17:58;20.90;56.90
28959;DHT22;16066;0.000;0.000;2022-09-09T05:20:24;20.90;56.90
28959;DHT22;16066;0.000;0.000;2022-09-09T05:22:56;20.90;56.90
28959;DHT22;16066;0.000;0.000;2022-09-09T05:25:22;20.90;56.90
28959;DHT22;16066;0.000;0.000;2022-09-09T05:27:50;20.90;56.90
28959;DHT22;16066;0.000;0.000;2022-09-09T05:30:16;20.90;56.90
28959;DHT22;16066;0.000;0.000;2022-09-09T05:32:44;20.80;56.90
28959;DHT22;16066;0.000;0.000;2022-09-09T05:35:09;20.80;56.90
28959;DHT22;16066;0.000;0.000;2022-09-09T05:37:35;20.80;57.00
28959;DHT22;16066;0.000;0.000;2022-09-09T05:40:01;20.80;57.00
28959;DHT22;16066;0.000;0.000;2022-09-09T05:42:30;20.80;57.10
28959;DHT22;16066;0.000;0.000;2022-09-09T05:44:56;20.80;57.00
28959;DHT22;16066;0.000;0.000;2022-09-09T05:47:22;20.80;57.00
28959;DHT22;16066;0.000;0.000;2022-09-09T05:49:48;20.90;57.00
28959;DHT22;16066;0.000;0.000;2022-09-09T05:52:14;20.80;56.90
28959;DHT22;16066;0.000;0.000;2022-09-09T05:54:40;20.90;57.00
28959;DHT22;16066;0.000;0.000;2022-09-09T05:57:08;20.90;57.10
28959;DHT22;16066;0.000;0.000;2022-09-09T05:59:34;20.80;57.10
28959;DHT22;16066;0.000;0.000;2022-09-09T06:01:59;20.90;57.10
28959;DHT22;16066;0.000;0.000;2022-09-09T06:04:25;20.80;57.10
28959;DHT22;16066;0.000;0.000;2022-09-09T06:06:50;20.80;57.00
28959;DHT22;16066;0.000;0.000;2022-09-09T06:09:16;20.80;57.00
28959;DHT22;16066;0.000;0.000;2022-09-09T06:11:42;20.80;57.20
28959;DHT22;16066;0.000;0.000;2022-09-09T06:14:08;20.80;57.20
28959;DHT22;16066;0.000;0.000;2022-09-09T06:16:34;20.80;57.50
28959;DHT22;16066;0.000;0.000;2022-09-09T06:19:01;20.80;57.50
28959;DHT22;16066;0.000;0.000;2022-09-09T06:21:30;20.80;57.50
28959;DHT22;16066;0.000;0.000;2022-09-09T06:23:56;20.80;57.60
28959;DHT22;16066;0.000;0.000;2022-09-09T06:26:24;20.80;57.80
28959;DHT22;16066;0.000;0.000;2022-09-09T06:28:52;20.80;57.70
28959;DHT22;16066;0.000;0.000;2022-09-09T06:31:20;20.80;57.70
28959;DHT22;16066;0.000;0.000;2022-09-09T06:33:53;20.80;57.70
28959;DHT22;16066;0.000;0.000;2022-09-09T06:36:37;20.80;57.70
28959;DHT22;16066;0.000;0.000;2022-09-09T06:39:04;20.80;57.50
28959;DHT22;16066;0.000;0.000;2022-09-09T06:41:31;20.80;57.50
28959;DHT22;16066;0.000;0.000;2022-09-09T06:43:58;20.80;57.50
28959;DHT22;16066;0.000;0.000;2022-09-09T06:46:28;20.80;57.40
28959;DHT22;16066;0.000;0.000;2022-09-09T06:48:56;20.90;57.30
28959;DHT22;16066;0.000;0.000;2022-09-09T06:51:26;20.90;57.40
28959;DHT22;16066;0.000;0.000;2022-09-09T06:53:54;20.90;57.90
28959;DHT22;16066;0.000;0.000;2022-09-09T06:56:43;21.00;58.10
28959;DHT22;16066;0.000;0.000;2022-09-09T06:59:09;21.00;58.10
28959;DHT22;16066;0.000;0.000;2022-09-09T07:01:39;21.00;57.50
28959;DHT22;16066;0.000;0.000;2022-09-09T07:04:06;21.10;57.50
28959;DHT22;16066;0.000;0.000;2022-09-09T07:06:41;21.00;57.40
28959;DHT22;16066;0.000;0.000;2022-09-09T07:09:10;21.00;57.30
28959;DHT22;16066;0.000;0.000;2022-09-09T07:11:44;21.00;57.10
28959;DHT22;16066;0.000;0.000;2022-09-09T07:14:11;21.00;57.10
28959;DHT22;16066;0.000;0.000;2022-09-09T07:16:40;20.90;57.20
28959;DHT22;16066;0.000;0.000;2022-09-09T07:19:06;20.90;57.30
28959;DHT22;16066;0.000;0.000;2022-09-09T07:21:32;20.90;57.30
28959;DHT22;16066;0.000;0.000;2022-09-09T07:23:58;20.80;57.30
28959;DHT22;16066;0.000;0.000;2022-09-09T07:26:27;20.80;57.50
28959;DHT22;16066;0.000;0.000;2022-09-09T07:28:54;20.80;57.50
28959;DHT22;16066;0.000;0.000;2022-09-09T07:31:32;20.80;57.30
28959;DHT22;16066;0.000;0.000;2022-09-09T07:33:58;20.80;57.30
28959;DHT22;16066;0.000;0.000;2022-09-09T07:36:33;20.80;57.40
28959;DHT22;16066;0.000;0.000;2022-09-09T07:39:04;20.80;57.60
28959;DHT22;16066;0.000;0.000;2022-09-09T07:44:09;20.80;57.40
28959;DHT22;16066;0.000;0.000;2022-09-09T07:46:36;20.80;57.40
28959;DHT22;16066;0.000;0.000;2022-09-09T07:49:02;20.80;57.90
28959;DHT22;16066;0.000;0.000;2022-09-09T07:51:31;20.80;57.20
28959;DHT22;16066;0.000;0.000;2022-09-09T07:53:59;20.80;57.20
28959;DHT22;16066;0.000;0.000;2022-09-09T07:56:27;20.90;57.10
28959;DHT22;16066;0.000;0.000;2022-09-09T07:58:54;20.90;57.10
28959;DHT22;16066;0.000;0.000;2022-09-09T08:01:27;20.90;56.90
28959;DHT22;16066;0.000;0.000;2022-09-09T08:04:01;20.90;56.90
28959;DHT22;16066;0.000;0.000;2022-09-09T08:06:29;20.90;56.90
28959;DHT22;16066;0.000;0.000;2022-09-09T08:08:55;21.00;56.80
28959;DHT22;16066;0.000;0.000;2022-09-09T08:11:23;21.00;56.70
28959;DHT22;16066;0.000;0.000;2022-09-09T08:13:49;20.90;56.70
28959;DHT22;16066;0.000;0.000;2022-09-09T08:16:20;20.90;56.60
28959;DHT22;16066;0.000;0.000;2022-09-09T08:18:48;21.00;56.60
28959;DHT22;16066;0.000;0.000;2022-09-09T08:21:16;21.00;56.50
28959;DHT22;16066;0.000;0.000;2022-09-09T08:23:44;21.00;56.20
28959;DHT22;16066;0.000;0.000;2022-09-09T08:26:16;21.00;56.20
28959;DHT22;16066;0.000;0.000;2022-09-09T08:28:42;21.00;56.10
28959;DHT22;16066;0.000;0.000;2022-09-09T08:31:14;21.00;55.90
28959;DHT22;16066;0.000;0.000;2022-09-09T08:33:41;21.00;55.90
28959;DHT22;16066;0.000;0.000;2022-09-09T08:36:10;21.10;55.80
28959;DHT22;16066;0.000;0.000;2022-09-09T08:38:37;21.10;55.60
28959;DHT22;16066;0.000;0.000;2022-09-09T08:44:20;21.20;55.30
28959;DHT22;16066;0.000;0.000;2022-09-09T08:52:12;21.30;54.80
28959;DHT22;16066;0.000;0.000;2022-09-09T08:54:41;21.20;54.50
28959;DHT22;16066;0.000;0.000;2022-09-09T08:57:14;21.30;54.70
28959;DHT22;16066;0.000;0.000;2022-09-09T08:59:43;21.20;54.50
28959;DHT22;16066;0.000;0.000;2022-09-09T09:02:32;21.20;54.60
28959;DHT22;16066;0.000;0.000;2022-09-09T09:05:29;21.30;54.70
28959;DHT22;16066;0.000;0.000;2022-09-09T09:08:24;21.30;54.60
28959;DHT22;16066;0.000;0.000;2022-09-09T09:10:54;21.30;54.50
28959;DHT22;16066;0.000;0.000;2022-09-09T09:16:02;21.30;54.50
28959;DHT22;16066;0.000;0.000;2022-09-09T09:18:31;21.30;54.50
28959;DHT22;16066;0.000;0.000;2022-09-09T09:21:04;21.30;54.20
28959;DHT22;16066;0.000;0.000;2022-09-09T09:23:59;21.30;54.10
28959;DHT22;16066;0.000;0.000;2022-09-09T09:26:34;21.30;54.40
28959;DHT22;16066;0.000;0.000;2022-09-09T09:29:10;21.30;54.70
28959;DHT22;16066;0.000;0.000;2022-09-09T09:31:37;21.30;54.80
28959;DHT22;16066;0.000;0.000;2022-09-09T09:34:03;21.30;55.00
28959;DHT22;16066;0.000;0.000;2022-09-09T09:36:40;21.30;55.20
28959;DHT22;16066;0.000;0.000;2022-09-09T09:39:07;21.20;55.20
28959;DHT22;16066;0.000;0.000;2022-09-09T09:41:36;21.20;55.40
28959;DHT22;16066;0.000;0.000;2022-09-09T09:44:04;21.20;54.90
28959;DHT22;16066;0.000;0.000;2022-09-09T09:46:30;21.20;54.70
28959;DHT22;16066;0.000;0.000;2022-09-09T09:49:09;21.20;55.00
28959;DHT22;16066;0.000;0.000;2022-09-09T09:51:35;21.20;54.50
28959;DHT22;16066;0.000;0.000;2022-09-09T09:56:41;21.20;54.00
28959;DHT22;16066;0.000;0.000;2022-09-09T10:01:54;21.20;53.80
28959;DHT22;16066;0.000;0.000;2022-09-09T10:04:21;21.20;53.70
28959;DHT22;16066;0.000;0.000;2022-09-09T10:06:49;21.20;53.30
28959;DHT22;16066;0.000;0.000;2022-09-09T10:09:29;21.20;52.80
28959;DHT22;16066;0.000;0.000;2022-09-09T10:12:30;21.20;52.00
28959;DHT22;16066;0.000;0.000;2022-09-09T10:15:50;21.20;51.90
28959;DHT22;16066;0.000;0.000;2022-09-09T10:21:03;21.20;51.50
28959;DHT22;16066;0.000;0.000;2022-09-09T10:24:00;21.20;51.30
28959;DHT22;16066;0.000;0.000;2022-09-09T10:29:46;21.30;51.20
28959;DHT22;16066;0.000;0.000;2022-09-09T10:32:28;21.30;51.00
28959;DHT22;16066;0.000;0.000;2022-09-09T10:35:44;21.30;51.10
28959;DHT22;16066;0.000;0.000;2022-09-09T10:38:05;21.40;50.90
28959;DHT22;16066;0.000;0.000;2022-09-09T10:46:01;21.40;50.80
28959;DHT22;16066;0.000;0.000;2022-09-09T10:51:27;21.40;50.70
28959;DHT22;16066;0.000;0.000;2022-09-09T10:56:45;21.50;50.40
28959;DHT22;16066;0.000;0.000;2022-09-09T10:59:19;21.50;50.30
28959;DHT22;16066;0.000;0.000;2022-09-09T11:01:55;21.60;50.30
28959;DHT22;16066;0.000;0.000;2022-09-09T11:04:32;21.60;50.30
28959;DHT22;16066;0.000;0.000;2022-09-09T11:07:01;21.70;50.20
28959;DHT22;16066;0.000;0.000;2022-09-09T11:09:33;21.70;50.20
28959;DHT22;16066;0.000;0.000;2022-09-09T11:12:02;21.70;50.10
28959;DHT22;16066;0.000;0.000;2022-09-09T11:14:39;21.70;49.90
28959;DHT22;16066;0.000;0.000;2022-09-09T11:17:16;21.80;49.70
28959;DHT22;16066;0.000;0.000;2022-09-09T11:19:44;21.80;49.70
28959;DHT22;16066;0.000;0.000;2022-09-09T11:22:36;21.80;49.70
28959;DHT22;16066;0.000;0.000;2022-09-09T11:25:17;21.80;49.60
28959;DHT22;16066;0.000;0.000;2022-09-09T11:30:40;21.80;49.60
28959;DHT22;16066;0.000;0.000;2022-09-09T11:42:17;21.90;49.50
28959;DHT22;16066;0.000;0.000;2022-09-09T11:44:44;21.90;49.50
28959;DHT22;16066;0.000;0.000;2022-09-09T11:47:29;21.90;49.40
28959;DHT22;16066;0.000;0.000;2022-09-09T11:50:30;21.90;49.20
28959;DHT22;16066;0.000;0.000;2022-09-09T11:53:17;21.90;49.30
28959;DHT22;16066;0.000;0.000;2022-09-09T11:55:46;21.80;49.30
28959;DHT22;16066;0.000;0.000;2022-09-09T12:06:19;21.70;49.80
28959;DHT22;16066;0.000;0.000;2022-09-09T12:08:51;21.70;50.50
28959;DHT22;16066;0.000;0.000;2022-09-09T12:11:27;21.70;50.90
28959;DHT22;16066;0.000;0.000;2022-09-09T12:13:58;21.70;51.20
28959;DHT22;16066;0.000;0.000;2022-09-09T12:16:36;21.70;51.30
28959;DHT22;16066;0.000;0.000;2022-09-09T12:24:11;21.80;51.60
28959;DHT22;16066;0.000;0.000;2022-09-09T12:32:16;21.80;51.50
28959;DHT22;16066;0.000;0.000;2022-09-09T12:37:47;21.80;51.40
28959;DHT22;16066;0.000;0.000;2022-09-09T12:40:19;21.80;51.10
28959;DHT22;16066;0.000;0.000;2022-09-09T12:42:44;21.80;51.10
28959;DHT22;16066;0.000;0.000;2022-09-09T12:45:22;21.80;51.00
28959;DHT22;16066;0.000;0.000;2022-09-09T12:47:59;21.80;51.30
28959;DHT22;16066;0.000;0.000;2022-09-09T12:50:31;21.70;51.70
28959;DHT22;16066;0.000;0.000;2022-09-09T12:55:58;21.70;52.30
28959;DHT22;16066;0.000;0.000;2022-09-09T12:58:25;21.80;52.10
28959;DHT22;16066;0.000;0.000;2022-09-09T13:00:55;21.80;52.10
28959;DHT22;16066;0.000;0.000;2022-09-09T13:03:25;21.80;52.20
28959;DHT22;16066;0.000;0.000;2022-09-09T13:05:52;21.80;51.90
28959;DHT22;16066;0.000;0.000;2022-09-09T13:08:19;21.90;51.90
28959;DHT22;16066;0.000;0.000;2022-09-09T13:13:16;22.00;51.50
28959;DHT22;16066;0.000;0.000;2022-09-09T13:15:54;22.00;51.30
28959;DHT22;16066;0.000;0.000;2022-09-09T13:18:26;22.00;51.30
28959;DHT22;16066;0.000;0.000;2022-09-09T13:20:52;22.00;51.30
28959;DHT22;16066;0.000;0.000;2022-09-09T13:23:20;21.90;51.20
28959;DHT22;16066;0.000;0.000;2022-09-09T13:26:00;21.90;51.30
28959;DHT22;16066;0.000;0.000;2022-09-09T13:28:28;21.90;51.40
28959;DHT22;16066;0.000;0.000;2022-09-09T13:33:38;21.80;52.20
28959;DHT22;16066;0.000;0.000;2022-09-09T13:36:09;21.80;53.50
28959;DHT22;16066;0.000;0.000;2022-09-09T13:41:22;21.70;54.50
28959;DHT22;16066;0.000;0.000;2022-09-09T13:43:49;21.60;55.40
28959;DHT22;16066;0.000;0.000;2022-09-09T13:46:32;21.60;56.10
28959;DHT22;16066;0.000;0.000;2022-09-09T13:49:00;21.50;55.70
28959;DHT22;16066;0.000;0.000;2022-09-09T13:51:43;21.50;56.30
28959;DHT22;16066;0.000;0.000;2022-09-09T13:54:13;21.50;56.20
28959;DHT22;16066;0.000;0.000;2022-09-09T13:56:40;21.50;56.40
28959;DHT22;16066;0.000;0.000;2022-09-09T13:59:12;21.50;56.50
28959;DHT22;16066;0.000;0.000;2022-09-09T14:01:38;21.60;56.80
28959;DHT22;16066;0.000;0.000;2022-09-09T14:04:04;21.60;56.40
28959;DHT22;16066;0.000;0.000;2022-09-09T14:06:32;21.80;57.40
28959;DHT22;16066;0.000;0.000;2022-09-09T14:08:58;22.10;56.20
28959;DHT22;16066;0.000;0.000;2022-09-09T14:11:24;22.60;55.10
28959;DHT22;16066;0.000;0.000;2022-09-09T14:13:49;23.00;53.80
28959;DHT22;16066;0.000;0.000;2022-09-09T14:16:16;23.50;53.10
28959;DHT22;16066;0.000;0.000;2022-09-09T14:18:43;23.70;52.80
28959;DHT22;16066;0.000;0.000;2022-09-09T14:21:09;23.90;52.40
28959;DHT22;16066;0.000;0.000;2022-09-09T14:23:35;23.90;52.00
28959;DHT22;16066;0.000;0.000;2022-09-09T14:26:00;23.80;52.10
28959;DHT22;16066;0.000;0.000;2022-09-09T14:28:26;23.60;52.50
28959;DHT22;16066;0.000;0.000;2022-09-09T14:30:51;23.40;52.70
28959;DHT22;16066;0.000;0.000;2022-09-09T14:33:17;23.20;53.20
28959;DHT22;16066;0.000;0.000;2022-09-09T14:35:43;23.10;53.40
28959;DHT22;16066;0.000;0.000;2022-09-09T14:38:09;23.00;53.50
28959;DHT22;16066;0.000;0.000;2022-09-09T14:40:36;22.80;53.90
28959;DHT22;16066;0.000;0.000;2022-09-09T14:43:03;22.80;54.20
28959;DHT22;16066;0.000;0.000;2022-09-09T14:45:29;22.90;54.10
28959;DHT22;16066;0.000;0.000;2022-09-09T14:47:54;22.90;53.90
28959;DHT22;16066;0.000;0.000;2022-09-09T14:50:21;22.80;53.80
28959;DHT22;16066;0.000;0.000;2022-09-09T14:52:47;22.70;53.90
28959;DHT22;16066;0.000;0.000;2022-09-09T14:55:14;22.60;54.00
28959;DHT22;16066;0.000;0.000;2022-09-09T14:57:41;22.60;54.10
28959;DHT22;16066;0.000;0.000;2022-09-09T15:00:08;22.50;54.50
28959;DHT22;16066;0.000;0.000;2022-09-09T15:02:34;22.50;54.50
28959;DHT22;16066;0.000;0.000;2022-09-09T15:05:00;22.40;54.70
28959;DHT22;16066;0.000;0.000;2022-09-09T15:07:27;22.40;55.00
28959;DHT22;16066;0.000;0.000;2022-09-09T15:09:53;22.40;55.50
28959;DHT22;16066;0.000;0.000;2022-09-09T15:12:20;22.40;55.50
28959;DHT22;16066;0.000;0.000;2022-09-09T15:14:46;22.40;55.60
28959;DHT22;16066;0.000;0.000;2022-09-09T15:17:12;22.30;55.90
28959;DHT22;16066;0.000;0.000;2022-09-09T15:19:38;22.20;56.00
28959;DHT22;16066;0.000;0.000;2022-09-09T15:22:04;22.10;56.00
28959;DHT22;16066;0.000;0.000;2022-09-09T15:24:33;22.10;55.90
28959;DHT22;16066;0.000;0.000;2022-09-09T15:26:58;22.00;55.30
28959;DHT22;16066;0.000;0.000;2022-09-09T15:29:25;21.90;55.60
28959;DHT22;16066;0.000;0.000;2022-09-09T15:31:50;21.80;55.80
28959;DHT22;16066;0.000;0.000;2022-09-09T15:34:16;21.70;55.90
28959;DHT22;16066;0.000;0.000;2022-09-09T15:36:44;21.60;56.20
28959;DHT22;16066;0.000;0.000;2022-09-09T15:39:13;21.50;56.20
28959;DHT22;16066;0.000;0.000;2022-09-09T15:41:41;21.40;56.40
28959;DHT22;16066;0.000;0.000;2022-09-09T15:44:07;21.30;56.80
28959;DHT22;16066;0.000;0.000;2022-09-09T15:46:34;21.20;56.80
28959;DHT22;16066;0.000;0.000;2022-09-09T15:51:39;21.30;56.40
28959;DHT22;16066;0.000;0.000;2022-09-09T15:54:05;21.40;56.30
28959;DHT22;16066;0.000;0.000;2022-09-09T15:56:31;21.50;56.50
28959;DHT22;16066;0.000;0.000;2022-09-09T15:58:59;21.60;57.00
28959;DHT22;16066;0.000;0.000;2022-09-09T16:01:25;21.60;56.40
28959;DHT22;16066;0.000;0.000;2022-09-09T16:03:52;21.70;56.40
28959;DHT22;16066;0.000;0.000;2022-09-09T16:06:20;21.70;56.40
28959;DHT22;16066;0.000;0.000;2022-09-09T16:08:48;21.70;56.60
28959;DHT22;16066;0.000;0.000;2022-09-09T16:11:17;21.80;56.80
28959;DHT22;16066;0.000;0.000;2022-09-09T16:13:46;21.80;56.40
28959;DHT22;16066;0.000;0.000;2022-09-09T16:16:13;21.90;56.30
28959;DHT22;16066;0.000;0.000;2022-09-09T16:18:44;21.80;55.90
28959;DHT22;16066;0.000;0.000;2022-09-09T16:23:40;21.80;56.50
28959;DHT22;16066;0.000;0.000;2022-09-09T16:26:05;21.80;56.60
28959;DHT22;16066;0.000;0.000;2022-09-09T16:28:31;21.70;56.80
28959;DHT22;16066;0.000;0.000;2022-09-09T16:30:57;21.70;56.70
28959;DHT22;16066;0.000;0.000;2022-09-09T16:33:23;21.80;56.70
28959;DHT22;16066;0.000;0.000;2022-09-09T16:35:51;21.80;56.90
28959;DHT22;16066;0.000;0.000;2022-09-09T16:38:16;21.80;57.10
28959;DHT22;16066;0.000;0.000;2022-09-09T16:40:42;21.80;57.10
28959;DHT22;16066;0.000;0.000;2022-09-09T16:43:08;21.80;57.00
28959;DHT22;16066;0.000;0.000;2022-09-09T16:45:44;21.90;57.40
28959;DHT22;16066;0.000;0.000;2022-09-09T16:48:11;21.90;58.10
28959;DHT22;16066;0.000;0.000;2022-09-09T16:50:36;21.90;57.60
28959;DHT22;16066;0.000;0.000;2022-09-09T16:53:02;21.90;57.60
28959;DHT22;16066;0.000;0.000;2022-09-09T16:55:29;21.90;58.70
28959;DHT22;16066;0.000;0.000;2022-09-09T16:57:55;21.80;58.50
28959;DHT22;16066;0.000;0.000;2022-09-09T17:00:20;21.80;58.30
28959;DHT22;16066;0.000;0.000;2022-09-09T17:02:48;21.90;58.00
28959;DHT22;16066;0.000;0.000;2022-09-09T17:05:14;21.90;57.90
28959;DHT22;16066;0.000;0.000;2022-09-09T17:07:39;21.90;57.70
28959;DHT22;16066;0.000;0.000;2022-09-09T17:10:06;21.90;57.90
28959;DHT22;16066;0.000;0.000;2022-09-09T17:12:32;21.90;57.70
28959;DHT22;16066;0.000;0.000;2022-09-09T17:14:58;22.00;57.70
28959;DHT22;16066;0.000;0.000;2022-09-09T17:17:25;22.00;57.70
28959;DHT22;16066;0.000;0.000;2022-09-09T17:19:52;22.00;57.90
28959;DHT22;16066;0.000;0.000;2022-09-09T17:22:17;22.00;58.10
28959;DHT22;16066;0.000;0.000;2022-09-09T17:24:43;22.00;57.90
28959;DHT22;16066;0.000;0.000;2022-09-09T17:27:09;22.00;58.10
28959;DHT22;16066;0.000;0.000;2022-09-09T17:29:35;22.00;57.90
28959;DHT22;16066;0.000;0.000;2022-09-09T17:32:02;21.90;58.40
28959;DHT22;16066;0.000;0.000;2022-09-09T17:34:27;21.90;58.20
28959;DHT22;16066;0.000;0.000;2022-09-09T17:36:53;21.90;58.30
28959;DHT22;16066;0.000;0.000;2022-09-09T17:39:19;21.90;58.10
28959;DHT22;16066;0.000;0.000;2022-09-09T17:41:44;21.80;58.30
28959;DHT22;16066;0.000;0.000;2022-09-09T17:44:10;21.70;58.20
28959;DHT22;16066;0.000;0.000;2022-09-09T17:46:38;21.60;58.20
28959;DHT22;16066;0.000;0.000;2022-09-09T17:49:10;21.60;58.20
28959;DHT22;16066;0.000;0.000;2022-09-09T17:51:37;21.50;58.30
28959;DHT22;16066;0.000;0.000;2022-09-09T17:54:15;21.50;58.30
28959;DHT22;16066;0.000;0.000;2022-09-09T17:56:42;21.40;58.50
28959;DHT22;16066;0.000;0.000;2022-09-09T17:59:09;21.30;58.30